Time;durP1;ratioP1;P1;durP2;ratioP2;P2;SDS_P1;SDS_P2;PMS_P1;PMS_P2;Temp;Humidity;BMP_temperature;BMP_pressure;BME280_temperature;BME280_humidity;BME280_pressure;Samples;Min_cycle;Max_cycle;Signal;HPM_P1;HPM_P2
2023/09/14 00:00:56;;;;;;;1999.90;999.90;;;;;;;;;;5079903;28;20049;-94
2023/09/14 00:03:24;;;;;;;1999.90;999.90;;;;;;;;;;5083150;28;20582;-93
2023/09/14 00:05:51;;;;;;;1999.90;999.90;;;;;;;;;;5086578;28;20053;-93
2023/09/14 00:08:19;;;;;;;1999.90;999.90;;;;;;;;;;5081693;28;20045;-93
2023/09/14 00:10:46;;;;;;;1999.90;999.90;;;;;;;;;;5082188;28;20045;-95
2023/09/14 00:13:12;;;;;;;1999.90;999.90;;;;;;;;;;5078414;28;20055;-91
2023/09/14 00:15:39;;;;;;;1999.90;999.90;;;;;;;;;;5080349;28;20055;-93
2023/09/14 00:18:06;;;;;;;1999.90;999.90;;;;;;;;;;5082460;28;20048;-95
2023/09/14 00:20:34;;;;;;;1999.90;999.90;;;;;;;;;;5080585;28;20054;-92
2023/09/14 00:23:01;;;;;;;1999.90;999.90;;;;;;;;;;5084919;28;20048;-93
2023/09/14 00:25:27;;;;;;;1999.90;999.90;;;;;;;;;;5080298;28;20108;-94
2023/09/14 00:27:54;;;;;;;1999.90;999.90;;;;;;;;;;5079696;28;20041;-93
2023/09/14 00:30:22;;;;;;;1999.90;999.90;;;;;;;;;;5081218;28;20044;-93
2023/09/14 00:32:51;;;;;;;1999.90;999.90;;;;;;;;;;5083793;28;20052;-94
2023/09/14 00:35:18;;;;;;;1999.90;999.90;;;;;;;;;;5078300;28;20052;-92
2023/09/14 00:37:46;;;;;;;1999.90;999.90;;;;;;;;;;5081242;28;20052;-93
2023/09/14 00:40:14;;;;;;;1999.90;999.90;;;;;;;;;;5074765;28;20044;-94
2023/09/14 00:42:42;;;;;;;1999.90;999.90;;;;;;;;;;5079954;28;20051;-92
2023/09/14 00:45:10;;;;;;;1999.90;999.90;;;;;;;;;;5081128;28;20044;-92
2023/09/14 00:47:38;;;;;;;1999.90;999.90;;;;;;;;;;5081255;28;20072;-92
2023/09/14 00:50:07;;;;;;;1999.90;999.90;;;;;;;;;;5080050;28;20365;-93
2023/09/14 00:52:35;;;;;;;1999.90;999.90;;;;;;;;;;5086653;28;20416;-93
2023/09/14 00:55:05;;;;;;;1999.90;999.90;;;;;;;;;;5080628;28;20044;-92
2023/09/14 00:57:32;;;;;;;1999.90;999.90;;;;;;;;;;5086046;28;20139;-93
2023/09/14 00:59:59;;;;;;;1999.90;999.90;;;;;;;;;;5081887;28;20488;-93
2023/09/14 01:02:26;;;;;;;1999.90;999.90;;;;;;;;;;5080746;28;20045;-94
2023/09/14 01:04:53;;;;;;;1999.90;999.90;;;;;;;;;;5081301;28;20056;-90
2023/09/14 01:07:20;;;;;;;1999.90;999.90;;;;;;;;;;5079255;28;20048;-92
2023/09/14 01:09:47;;;;;;;1999.90;999.90;;;;;;;;;;5084657;28;20053;-92
2023/09/14 01:12:15;;;;;;;1999.90;999.90;;;;;;;;;;5079813;28;20051;-92
2023/09/14 01:14:44;;;;;;;1999.90;999.90;;;;;;;;;;5080914;28;20040;-92
2023/09/14 01:17:15;;;;;;;1999.90;999.90;;;;;;;;;;5077556;28;20052;-93
2023/09/14 01:19:48;;;;;;;1999.90;999.90;;;;;;;;;;5080185;28;20051;-93
2023/09/14 01:22:27;;;;;;;1999.90;999.90;;;;;;;;;;5083682;28;20048;-93
2023/09/14 01:24:59;;;;;;;1999.90;999.90;;;;;;;;;;5080237;28;20046;-92
2023/09/14 01:27:27;;;;;;;1999.90;999.90;;;;;;;;;;5079538;28;20049;-91
2023/09/14 01:29:57;;;;;;;1999.90;999.90;;;;;;;;;;5074838;28;20052;-92
2023/09/14 01:32:23;;;;;;;1999.90;999.90;;;;;;;;;;5083285;28;20485;-92
2023/09/14 01:34:50;;;;;;;1999.90;999.90;;;;;;;;;;5076683;28;20040;-93
2023/09/14 01:37:16;;;;;;;1999.90;999.90;;;;;;;;;;5083532;28;20504;-93
2023/09/14 01:39:43;;;;;;;1999.90;999.90;;;;;;;;;;5078761;28;20413;-91
2023/09/14 01:42:10;;;;;;;1999.90;999.90;;;;;;;;;;5077518;28;20151;-91
2023/09/14 01:44:38;;;;;;;1999.90;999.90;;;;;;;;;;5080361;28;20055;-92
2023/09/14 01:47:05;;;;;;;1999.90;999.90;;;;;;;;;;5083116;28;20050;-91
2023/09/14 01:49:31;;;;;;;1999.90;999.90;;;;;;;;;;5079144;28;20044;-92
2023/09/14 01:51:58;;;;;;;1999.90;999.90;;;;;;;;;;5077892;28;20056;-92
2023/09/14 01:54:25;;;;;;;1999.90;999.90;;;;;;;;;;5082922;28;20046;-91
2023/09/14 01:56:51;;;;;;;1999.90;999.90;;;;;;;;;;5082455;28;20060;-90
2023/09/14 01:59:18;;;;;;;1999.90;999.90;;;;;;;;;;5077655;28;20048;-90
2023/09/14 02:01:46;;;;;;;1999.90;999.90;;;;;;;;;;5081164;28;20048;-91
2023/09/14 02:04:13;;;;;;;1999.90;999.90;;;;;;;;;;5079182;28;20128;-91
2023/09/14 02:06:39;;;;;;;1999.90;999.90;;;;;;;;;;5077145;28;20044;-92
2023/09/14 02:09:06;;;;;;;1999.90;999.90;;;;;;;;;;5081617;28;20043;-89
2023/09/14 02:11:32;;;;;;;1999.90;999.90;;;;;;;;;;5081528;28;20088;-91
2023/09/14 02:13:59;;;;;;;1999.90;999.90;;;;;;;;;;5080274;28;20059;-90
2023/09/14 02:16:26;;;;;;;1999.90;999.90;;;;;;;;;;5083804;28;20077;-91
2023/09/14 02:18:54;;;;;;;1999.90;999.90;;;;;;;;;;5081133;28;20059;-91
2023/09/14 02:21:20;;;;;;;1999.90;999.90;;;;;;;;;;5081866;28;20062;-91
2023/09/14 02:23:47;;;;;;;1999.90;999.90;;;;;;;;;;5081141;28;20485;-90
2023/09/14 02:26:13;;;;;;;1999.90;999.90;;;;;;;;;;5079273;28;20053;-92
2023/09/14 02:28:40;;;;;;;1999.90;999.90;;;;;;;;;;5080534;28;20044;-90
2023/09/14 02:31:07;;;;;;;1999.90;999.90;;;;;;;;;;5081259;28;20043;-91
2023/09/14 02:33:33;;;;;;;1999.90;999.90;;;;;;;;;;5077629;28;20581;-92
2023/09/14 02:36:01;;;;;;;1999.90;999.90;;;;;;;;;;5077752;28;20512;-90
2023/09/14 02:38:28;;;;;;;1999.90;999.90;;;;;;;;;;5084578;28;20059;-91
2023/09/14 02:40:54;;;;;;;1999.90;999.90;;;;;;;;;;5075395;28;20274;-90
2023/09/14 02:43:21;;;;;;;1999.90;999.90;;;;;;;;;;5077073;28;20041;-91
2023/09/14 02:45:47;;;;;;;1999.90;999.90;;;;;;;;;;5079434;28;20053;-91
2023/09/14 02:48:14;;;;;;;1999.90;999.90;;;;;;;;;;5083708;28;20042;-89
2023/09/14 02:50:41;;;;;;;1999.90;999.90;;;;;;;;;;5080463;28;20040;-91
2023/09/14 02:53:08;;;;;;;1999.90;999.90;;;;;;;;;;5078290;28;20428;-90
2023/09/14 02:55:35;;;;;;;1999.90;999.90;;;;;;;;;;5082670;28;20408;-92
2023/09/14 02:58:02;;;;;;;1999.90;999.90;;;;;;;;;;5078500;28;20044;-92
2023/09/14 03:00:28;;;;;;;1999.90;999.90;;;;;;;;;;5083537;28;20064;-90
2023/09/14 03:02:55;;;;;;;1999.90;999.90;;;;;;;;;;5081503;28;20052;-91
2023/09/14 03:05:21;;;;;;;1999.90;999.90;;;;;;;;;;5086571;28;20058;-91
2023/09/14 03:07:48;;;;;;;1999.90;999.90;;;;;;;;;;5081750;28;20049;-91
2023/09/14 03:10:16;;;;;;;1999.90;999.90;;;;;;;;;;5084132;28;20045;-91
2023/09/14 03:12:42;;;;;;;1999.90;999.90;;;;;;;;;;5084212;28;20049;-91
2023/09/14 03:15:09;;;;;;;1999.90;999.90;;;;;;;;;;5081128;28;20429;-90
2023/09/14 03:17:36;;;;;;;1999.90;999.90;;;;;;;;;;5082619;28;20064;-91
2023/09/14 03:20:06;;;;;;;1999.90;999.90;;;;;;;;;;5084213;28;20388;-92
2023/09/14 03:22:33;;;;;;;1999.90;999.90;;;;;;;;;;5082865;28;20047;-91
2023/09/14 03:25:00;;;;;;;1999.90;999.90;;;;;;;;;;5082802;28;20056;-91
2023/09/14 03:27:28;;;;;;;1999.90;999.90;;;;;;;;;;5084544;28;20052;-90
2023/09/14 03:29:54;;;;;;;1999.90;999.90;;;;;;;;;;5086029;28;20051;-91
2023/09/14 03:32:21;;;;;;;1999.90;999.90;;;;;;;;;;5079837;28;20056;-90
2023/09/14 03:34:50;;;;;;;1999.90;999.90;;;;;;;;;;5080480;28;20056;-91
2023/09/14 03:37:17;;;;;;;1999.90;999.90;;;;;;;;;;5084104;28;20052;-89
2023/09/14 03:39:45;;;;;;;1999.90;999.90;;;;;;;;;;5077368;28;20407;-90
2023/09/14 03:42:12;;;;;;;1999.90;999.90;;;;;;;;;;5083187;28;20058;-90
2023/09/14 03:44:40;;;;;;;1999.90;999.90;;;;;;;;;;5077257;28;20083;-90
2023/09/14 03:47:07;;;;;;;1999.90;999.90;;;;;;;;;;5080174;28;20045;-90
2023/09/14 03:49:34;;;;;;;1999.90;999.90;;;;;;;;;;5081138;28;20141;-91
2023/09/14 03:52:00;;;;;;;1999.90;999.90;;;;;;;;;;5082865;28;20063;-92
2023/09/14 03:54:27;;;;;;;1999.90;999.90;;;;;;;;;;5082814;28;20050;-91
2023/09/14 03:56:53;;;;;;;1999.90;999.90;;;;;;;;;;5081112;28;20124;-91
2023/09/14 03:59:20;;;;;;;1999.90;999.90;;;;;;;;;;5079704;28;20056;-90
2023/09/14 04:01:48;;;;;;;1999.90;999.90;;;;;;;;;;5085733;28;20403;-91
2023/09/14 04:04:14;;;;;;;1999.90;999.90;;;;;;;;;;5084007;28;20102;-90
2023/09/14 04:06:41;;;;;;;1999.90;999.90;;;;;;;;;;5084725;28;20045;-89
2023/09/14 04:09:08;;;;;;;1999.90;999.90;;;;;;;;;;5082769;28;20044;-90
2023/09/14 04:11:35;;;;;;;1999.90;999.90;;;;;;;;;;5080753;28;20052;-91
2023/09/14 04:14:02;;;;;;;1999.90;999.90;;;;;;;;;;5081135;28;20045;-91
2023/09/14 04:16:30;;;;;;;1999.90;999.90;;;;;;;;;;5081220;28;20040;-92
2023/09/14 04:19:00;;;;;;;1999.90;999.90;;;;;;;;;;5085064;28;20452;-91
2023/09/14 04:21:28;;;;;;;1999.90;999.90;;;;;;;;;;5082067;28;20044;-91
2023/09/14 04:23:54;;;;;;;1999.90;999.90;;;;;;;;;;5082518;28;20056;-91
2023/09/14 04:26:21;;;;;;;1999.90;999.90;;;;;;;;;;5093085;28;20056;-91
2023/09/14 04:28:47;;;;;;;1999.90;999.90;;;;;;;;;;5085069;28;20048;-91
2023/09/14 04:31:14;;;;;;;1999.90;999.90;;;;;;;;;;5085107;28;20048;-91
2023/09/14 04:33:42;;;;;;;1999.90;999.90;;;;;;;;;;5091290;28;20699;-90
2023/09/14 04:36:10;;;;;;;1999.90;999.90;;;;;;;;;;5086100;28;20055;-90
2023/09/14 04:38:36;;;;;;;1999.90;999.90;;;;;;;;;;5084819;28;20044;-90
2023/09/14 04:41:05;;;;;;;1999.90;999.90;;;;;;;;;;5091139;28;20049;-90
2023/09/14 04:43:32;;;;;;;1999.90;999.90;;;;;;;;;;5089774;28;20059;-90
2023/09/14 04:46:00;;;;;;;1999.90;999.90;;;;;;;;;;5078018;28;20045;-91
2023/09/14 04:48:26;;;;;;;1999.90;999.90;;;;;;;;;;5083636;28;20056;-91
2023/09/14 04:50:56;;;;;;;1999.90;999.90;;;;;;;;;;5084018;28;20044;-90
2023/09/14 04:53:24;;;;;;;1999.90;999.90;;;;;;;;;;5077598;28;20476;-91
2023/09/14 04:55:50;;;;;;;1999.90;999.90;;;;;;;;;;5078162;28;20040;-91
2023/09/14 04:58:17;;;;;;;1999.90;999.90;;;;;;;;;;5078090;28;20562;-93
2023/09/14 05:00:44;;;;;;;1999.90;999.90;;;;;;;;;;5082233;28;20058;-91
2023/09/14 05:03:10;;;;;;;1999.90;999.90;;;;;;;;;;5082363;28;20051;-91
2023/09/14 05:05:37;;;;;;;1999.90;999.90;;;;;;;;;;5080445;28;20533;-92
2023/09/14 05:08:05;;;;;;;1999.90;999.90;;;;;;;;;;5081753;28;20036;-90
2023/09/14 05:10:33;;;;;;;1999.90;999.90;;;;;;;;;;5079671;28;20055;-92
2023/09/14 05:12:59;;;;;;;1999.90;999.90;;;;;;;;;;5083162;28;20048;-91
2023/09/14 05:15:26;;;;;;;1999.90;999.90;;;;;;;;;;5084086;28;20390;-92
2023/09/14 05:17:53;;;;;;;1999.90;999.90;;;;;;;;;;5078194;28;20051;-91
2023/09/14 05:20:19;;;;;;;1999.90;999.90;;;;;;;;;;5083186;28;20147;-90
2023/09/14 05:22:46;;;;;;;1999.90;999.90;;;;;;;;;;5082581;28;20053;-90
2023/09/14 05:25:12;;;;;;;1999.90;999.90;;;;;;;;;;5084742;28;20532;-92
2023/09/14 05:27:41;;;;;;;1999.90;999.90;;;;;;;;;;5082309;28;20050;-91
2023/09/14 05:30:09;;;;;;;1999.90;999.90;;;;;;;;;;5079184;28;20389;-87
2023/09/14 05:32:36;;;;;;;1999.90;999.90;;;;;;;;;;5079246;28;20090;-87
2023/09/14 05:35:04;;;;;;;1999.90;999.90;;;;;;;;;;5079044;28;20416;-87
2023/09/14 05:37:30;;;;;;;1999.90;999.90;;;;;;;;;;5077333;28;20461;-87
2023/09/14 05:39:57;;;;;;;1999.90;999.90;;;;;;;;;;5079930;28;20053;-87
2023/09/14 05:42:23;;;;;;;1999.90;999.90;;;;;;;;;;5082510;28;20056;-87
2023/09/14 05:44:51;;;;;;;1999.90;999.90;;;;;;;;;;5077215;28;20037;-87
2023/09/14 05:47:18;;;;;;;1999.90;999.90;;;;;;;;;;5078204;28;20056;-86
2023/09/14 05:49:45;;;;;;;1999.90;999.90;;;;;;;;;;5076675;28;20097;-87
2023/09/14 05:52:12;;;;;;;1999.90;999.90;;;;;;;;;;5080231;28;20480;-87
2023/09/14 05:54:39;;;;;;;1999.90;999.90;;;;;;;;;;5082030;28;20148;-87
2023/09/14 05:57:06;;;;;;;1999.90;999.90;;;;;;;;;;5079839;28;20481;-87
2023/09/14 05:59:32;;;;;;;1999.90;999.90;;;;;;;;;;5080210;28;20079;-87
2023/09/14 06:02:00;;;;;;;1999.90;999.90;;;;;;;;;;5079890;28;20586;-87
2023/09/14 06:04:27;;;;;;;1999.90;999.90;;;;;;;;;;5078002;28;20056;-87
2023/09/14 06:06:53;;;;;;;1999.90;999.90;;;;;;;;;;5078428;28;20066;-87
2023/09/14 06:09:20;;;;;;;1999.90;999.90;;;;;;;;;;5079536;28;20289;-87
2023/09/14 06:11:46;;;;;;;1999.90;999.90;;;;;;;;;;5079508;28;20055;-87
2023/09/14 06:14:13;;;;;;;1999.90;999.90;;;;;;;;;;5078814;28;20045;-87
2023/09/14 06:16:39;;;;;;;1999.90;999.90;;;;;;;;;;5078163;28;20052;-87
2023/09/14 06:19:07;;;;;;;1999.90;999.90;;;;;;;;;;5082927;28;20056;-87
2023/09/14 06:21:34;;;;;;;1999.90;999.90;;;;;;;;;;5077871;28;20052;-87
2023/09/14 06:24:01;;;;;;;1999.90;999.90;;;;;;;;;;5076525;28;20051;-87
2023/09/14 06:26:27;;;;;;;1999.90;999.90;;;;;;;;;;5076209;28;20063;-87
2023/09/14 06:28:55;;;;;;;1999.90;999.90;;;;;;;;;;5080409;28;20040;-87
2023/09/14 06:31:22;;;;;;;1999.90;999.90;;;;;;;;;;5078124;28;20134;-86
2023/09/14 06:33:49;;;;;;;1999.90;999.90;;;;;;;;;;5074067;28;20071;-87
2023/09/14 06:36:18;;;;;;;1999.90;999.90;;;;;;;;;;5076206;28;20155;-87
2023/09/14 06:38:44;;;;;;;1999.90;999.90;;;;;;;;;;5080102;28;20101;-87
2023/09/14 06:41:12;;;;;;;1999.90;999.90;;;;;;;;;;5078135;28;20075;-86
2023/09/14 06:43:39;;;;;;;1999.90;999.90;;;;;;;;;;5077964;28;20054;-87
2023/09/14 06:46:05;;;;;;;1999.90;999.90;;;;;;;;;;5079511;28;20051;-86
2023/09/14 06:48:32;;;;;;;1999.90;999.90;;;;;;;;;;5078285;28;20051;-86
2023/09/14 06:50:58;;;;;;;1999.90;999.90;;;;;;;;;;5071079;28;20049;-86
2023/09/14 06:53:26;;;;;;;1999.90;999.90;;;;;;;;;;5078212;28;20059;-87
2023/09/14 06:55:53;;;;;;;1999.90;999.90;;;;;;;;;;5078625;28;20040;-87
2023/09/14 06:58:19;;;;;;;1999.90;999.90;;;;;;;;;;5078032;28;20492;-87
2023/09/14 07:00:46;;;;;;;1999.90;999.90;;;;;;;;;;5076343;28;20489;-86
2023/09/14 07:03:12;;;;;;;1999.90;999.90;;;;;;;;;;5075759;28;20055;-86
2023/09/14 07:05:39;;;;;;;1999.90;999.90;;;;;;;;;;5080994;28;20049;-86
2023/09/14 07:08:06;;;;;;;1999.90;999.90;;;;;;;;;;5081309;28;20040;-86
2023/09/14 07:10:35;;;;;;;1999.90;999.90;;;;;;;;;;5074405;28;20051;-86
2023/09/14 07:13:02;;;;;;;1999.90;999.90;;;;;;;;;;5075309;28;20048;-87
2023/09/14 07:15:29;;;;;;;1999.90;999.90;;;;;;;;;;5078308;28;20052;-86
2023/09/14 07:17:55;;;;;;;1999.90;999.90;;;;;;;;;;5078895;28;20045;-86
2023/09/14 07:20:22;;;;;;;1999.90;999.90;;;;;;;;;;5078144;28;20048;-86
2023/09/14 07:22:49;;;;;;;1999.90;999.90;;;;;;;;;;5080910;28;20051;-86
2023/09/14 07:25:15;;;;;;;1999.90;999.90;;;;;;;;;;5080736;28;20102;-85
2023/09/14 07:27:44;;;;;;;1999.90;999.90;;;;;;;;;;5078669;28;20510;-85
2023/09/14 07:30:13;;;;;;;1999.90;999.90;;;;;;;;;;5074030;28;20045;-86
2023/09/14 07:32:39;;;;;;;1999.90;999.90;;;;;;;;;;5075631;28;20090;-86
2023/09/14 07:35:07;;;;;;;1999.90;999.90;;;;;;;;;;5079109;28;20041;-86
2023/09/14 07:37:33;;;;;;;1999.90;999.90;;;;;;;;;;5078300;28;20063;-86
2023/09/14 07:40:00;;;;;;;1999.90;999.90;;;;;;;;;;5075400;28;20044;-87
2023/09/14 07:42:27;;;;;;;1999.90;999.90;;;;;;;;;;5084315;28;20365;-87
2023/09/14 07:44:54;;;;;;;1999.90;999.90;;;;;;;;;;5081035;28;20119;-86
2023/09/14 07:47:24;;;;;;;1999.90;999.90;;;;;;;;;;5082643;28;20404;-85
2023/09/14 07:49:51;;;;;;;1999.90;999.90;;;;;;;;;;5083149;28;20048;-87
2023/09/14 07:52:17;;;;;;;1999.90;999.90;;;;;;;;;;5081586;28;20053;-86
2023/09/14 07:54:44;;;;;;;1999.90;999.90;;;;;;;;;;5081257;28;20392;-86
2023/09/14 07:57:10;;;;;;;1999.90;999.90;;;;;;;;;;5080749;28;20107;-86
2023/09/14 07:59:37;;;;;;;1999.90;999.90;;;;;;;;;;5081657;28;20045;-87
2023/09/14 08:02:07;;;;;;;1999.90;999.90;;;;;;;;;;5082971;28;20486;-87
2023/09/14 08:04:34;;;;;;;1999.90;999.90;;;;;;;;;;5077098;28;20048;-87
2023/09/14 08:07:00;;;;;;;1999.90;999.90;;;;;;;;;;5080032;28;20049;-86
2023/09/14 08:09:27;;;;;;;1999.90;999.90;;;;;;;;;;5079144;28;20056;-86
2023/09/14 08:11:54;;;;;;;1999.90;999.90;;;;;;;;;;5080991;28;20048;-86
2023/09/14 08:14:20;;;;;;;1999.90;999.90;;;;;;;;;;5078183;28;20562;-85
2023/09/14 08:16:47;;;;;;;1999.90;999.90;;;;;;;;;;5083141;28;20048;-86
2023/09/14 08:19:15;;;;;;;1999.90;999.90;;;;;;;;;;5082474;28;20044;-87
2023/09/14 08:21:41;;;;;;;1999.90;999.90;;;;;;;;;;5078865;28;20052;-86
2023/09/14 08:24:08;;;;;;;1999.90;999.90;;;;;;;;;;5084318;28;20044;-86
2023/09/14 08:26:35;;;;;;;1999.90;999.90;;;;;;;;;;5074538;28;20136;-86
2023/09/14 08:29:01;;;;;;;1999.90;999.90;;;;;;;;;;5081815;28;20437;-86
2023/09/14 08:31:28;;;;;;;1999.90;999.90;;;;;;;;;;5081984;28;20048;-86
2023/09/14 08:33:54;;;;;;;1999.90;999.90;;;;;;;;;;5080849;28;20044;-85
2023/09/14 08:36:22;;;;;;;1999.90;999.90;;;;;;;;;;5077831;28;20048;-86
2023/09/14 08:38:49;;;;;;;1999.90;999.90;;;;;;;;;;5078912;28;20377;-86
2023/09/14 08:41:25;;;;;;;1999.90;999.90;;;;;;;;;;5079942;28;20433;-85
2023/09/14 08:43:52;;;;;;;1999.90;999.90;;;;;;;;;;5079730;28;20036;-86
2023/09/14 08:46:19;;;;;;;1999.90;999.90;;;;;;;;;;5080864;28;20052;-86
2023/09/14 08:48:46;;;;;;;1999.90;999.90;;;;;;;;;;5081221;28;20073;-85
2023/09/14 08:51:13;;;;;;;1999.90;999.90;;;;;;;;;;5081137;28;20040;-87
2023/09/14 08:53:43;;;;;;;1999.90;999.90;;;;;;;;;;5079280;28;20430;-88
2023/09/14 08:56:12;;;;;;;1999.90;999.90;;;;;;;;;;5080728;28;20524;-87
2023/09/14 08:58:39;;;;;;;1999.90;999.90;;;;;;;;;;5082532;28;20047;-85
2023/09/14 09:01:09;;;;;;;1999.90;999.90;;;;;;;;;;5082621;28;20043;-87
2023/09/14 09:03:35;;;;;;;1999.90;999.90;;;;;;;;;;5080261;28;20630;-87
2023/09/14 09:06:02;;;;;;;1999.90;999.90;;;;;;;;;;5084321;28;20158;-87
2023/09/14 09:08:29;;;;;;;1999.90;999.90;;;;;;;;;;5081396;28;20044;-86
2023/09/14 09:10:57;;;;;;;1999.90;999.90;;;;;;;;;;5078385;28;20040;-86
2023/09/14 09:13:32;;;;;;;1999.90;999.90;;;;;;;;;;5079683;28;20064;-86
2023/09/14 09:15:59;;;;;;;1999.90;999.90;;;;;;;;;;5081998;28;20055;-86
2023/09/14 09:18:26;;;;;;;1999.90;999.90;;;;;;;;;;5081829;28;20102;-86
2023/09/14 09:20:52;;;;;;;1999.90;999.90;;;;;;;;;;5080993;28;20058;-85
2023/09/14 09:23:21;;;;;;;1999.90;999.90;;;;;;;;;;5084380;28;20044;-87
2023/09/14 09:25:49;;;;;;;1999.90;999.90;;;;;;;;;;5076387;28;20051;-85
2023/09/14 09:28:17;;;;;;;1999.90;999.90;;;;;;;;;;5076853;28;20113;-86
2023/09/14 09:30:44;;;;;;;1999.90;999.90;;;;;;;;;;5080504;28;20377;-86
2023/09/14 09:33:11;;;;;;;1999.90;999.90;;;;;;;;;;5083199;28;20483;-85
2023/09/14 09:35:38;;;;;;;1999.90;999.90;;;;;;;;;;5080270;28;20040;-86
2023/09/14 09:38:12;;;;;;;1999.90;999.90;;;;;;;;;;5076222;28;20055;-87
2023/09/14 09:40:41;;;;;;;1999.90;999.90;;;;;;;;;;5080454;28;20049;-86
2023/09/14 09:43:08;;;;;;;1999.90;999.90;;;;;;;;;;5078118;28;20040;-86
2023/09/14 09:45:40;;;;;;;1999.90;999.90;;;;;;;;;;5081846;28;20381;-86
2023/09/14 09:48:08;;;;;;;1999.90;999.90;;;;;;;;;;5079290;28;20036;-86
2023/09/14 09:50:35;;;;;;;1999.90;999.90;;;;;;;;;;5078422;28;20059;-87
2023/09/14 09:53:02;;;;;;;1999.90;999.90;;;;;;;;;;5080876;28;20048;-86
2023/09/14 09:55:30;;;;;;;1999.90;999.90;;;;;;;;;;5081993;28;20450;-87
2023/09/14 09:57:58;;;;;;;1999.90;999.90;;;;;;;;;;5079011;28;20047;-86
2023/09/14 10:00:28;;;;;;;1999.90;999.90;;;;;;;;;;5078203;28;20044;-86
2023/09/14 10:02:57;;;;;;;1999.90;999.90;;;;;;;;;;5072435;28;20054;-86
2023/09/14 10:05:30;;;;;;;1999.90;999.90;;;;;;;;;;5076036;28;20093;-85
2023/09/14 10:07:58;;;;;;;1999.90;999.90;;;;;;;;;;5079602;28;20047;-85
2023/09/14 10:10:26;;;;;;;1999.90;999.90;;;;;;;;;;5078781;28;20048;-86
2023/09/14 10:12:53;;;;;;;1999.90;999.90;;;;;;;;;;5081083;28;20071;-86
2023/09/14 10:15:20;;;;;;;1999.90;999.90;;;;;;;;;;5072648;28;20544;-85
2023/09/14 10:17:48;;;;;;;1999.90;999.90;;;;;;;;;;5077618;28;20056;-87
2023/09/14 10:20:16;;;;;;;1999.90;999.90;;;;;;;;;;5077749;28;20055;-88
2023/09/14 10:22:43;;;;;;;1999.90;999.90;;;;;;;;;;5081556;28;20052;-86
2023/09/14 10:25:09;;;;;;;1999.90;999.90;;;;;;;;;;5082682;28;20509;-87
2023/09/14 10:27:36;;;;;;;1999.90;999.90;;;;;;;;;;5082379;28;20496;-88
2023/09/14 10:30:05;;;;;;;1999.90;999.90;;;;;;;;;;5082515;28;20058;-89
2023/09/14 10:32:33;;;;;;;1999.90;999.90;;;;;;;;;;5077939;28;20048;-87
2023/09/14 10:35:06;;;;;;;1999.90;999.90;;;;;;;;;;5075013;28;20050;-89
2023/09/14 10:37:35;;;;;;;1999.90;999.90;;;;;;;;;;5081725;28;20044;-87
2023/09/14 10:40:04;;;;;;;1999.90;999.90;;;;;;;;;;5079148;28;20527;-88
2023/09/14 10:42:30;;;;;;;1999.90;999.90;;;;;;;;;;5078975;28;20054;-87
2023/09/14 10:44:57;;;;;;;1999.90;999.90;;;;;;;;;;5076544;28;20036;-87
2023/09/14 10:47:26;;;;;;;1999.90;999.90;;;;;;;;;;5078476;28;20044;-88
2023/09/14 10:49:53;;;;;;;1999.90;999.90;;;;;;;;;;5078931;28;20771;-87
2023/09/14 10:52:27;;;;;;;1999.90;999.90;;;;;;;;;;5079678;28;20044;-89
2023/09/14 10:54:56;;;;;;;1999.90;999.90;;;;;;;;;;5077786;28;20094;-89
2023/09/14 10:57:23;;;;;;;1999.90;999.90;;;;;;;;;;5078234;28;20049;-87
2023/09/14 10:59:51;;;;;;;1999.90;999.90;;;;;;;;;;5078171;28;20044;-87
2023/09/14 11:02:55;;;;;;;1999.90;999.90;;;;;;;;;;5080276;28;20150;-89
2023/09/14 11:05:23;;;;;;;1999.90;999.90;;;;;;;;;;5075692;28;20094;-88
2023/09/14 11:07:55;;;;;;;1999.90;999.90;;;;;;;;;;5080176;28;20060;-85
2023/09/14 11:10:24;;;;;;;1999.90;999.90;;;;;;;;;;5077521;28;20051;-86
2023/09/14 11:12:51;;;;;;;1999.90;999.90;;;;;;;;;;5081292;28;20052;-87
2023/09/14 11:15:20;;;;;;;1999.90;999.90;;;;;;;;;;5078802;28;20048;-85
2023/09/14 11:17:48;;;;;;;1999.90;999.90;;;;;;;;;;5080533;28;20412;-84
2023/09/14 11:20:39;;;;;;;1999.90;999.90;;;;;;;;;;5081290;28;20507;-86
2023/09/14 11:23:07;;;;;;;1999.90;999.90;;;;;;;;;;5085419;28;20044;-85
2023/09/14 11:25:36;;;;;;;1999.90;999.90;;;;;;;;;;5081913;28;20055;-85
2023/09/14 11:28:04;;;;;;;1999.90;999.90;;;;;;;;;;5084113;28;20470;-84
2023/09/14 11:30:30;;;;;;;1999.90;999.90;;;;;;;;;;5080432;28;20048;-85
2023/09/14 11:32:57;;;;;;;1999.90;999.90;;;;;;;;;;5078059;28;20044;-84
2023/09/14 11:35:33;;;;;;;1999.90;999.90;;;;;;;;;;5082430;28;20044;-84
2023/09/14 11:38:00;;;;;;;;;;;;;;;;;;5082433;28;20049;-85
2023/09/14 11:40:32;;;;;;;1999.90;999.90;;;;;;;;;;5081330;28;20781;-84
2023/09/14 11:43:21;;;;;;;1999.90;999.90;;;;;;;;;;5083557;28;20136;-86
2023/09/14 11:45:49;;;;;;;1999.90;999.90;;;;;;;;;;5080962;28;20372;-84
2023/09/14 11:48:16;;;;;;;1999.90;999.90;;;;;;;;;;5078091;28;20056;-88
2023/09/14 11:50:45;;;;;;;1999.90;999.90;;;;;;;;;;5081726;28;20049;-85
2023/09/14 11:53:17;;;;;;;1999.90;999.90;;;;;;;;;;5081274;28;20129;-85
2023/09/14 11:55:44;;;;;;;1999.90;999.90;;;;;;;;;;5081894;28;20044;-84
2023/09/14 11:58:13;;;;;;;1999.90;999.90;;;;;;;;;;5080542;28;20094;-87
2023/09/14 12:00:41;;;;;;;1999.90;999.90;;;;;;;;;;5082320;28;20047;-85
2023/09/14 12:03:07;;;;;;;1999.90;999.90;;;;;;;;;;5082501;28;20158;-86
2023/09/14 12:05:34;;;;;;;1999.90;999.90;;;;;;;;;;5078931;28;20055;-84
2023/09/14 12:08:08;;;;;;;1999.90;999.90;;;;;;;;;;5081011;28;20055;-84
2023/09/14 12:10:35;;;;;;;1999.90;999.90;;;;;;;;;;5082952;28;20040;-85
2023/09/14 12:13:09;;;;;;;1999.90;999.90;;;;;;;;;;5084256;28;20062;-85
2023/09/14 12:15:37;;;;;;;1999.90;999.90;;;;;;;;;;5079735;28;20051;-85
2023/09/14 12:18:04;;;;;;;1999.90;999.90;;;;;;;;;;5081751;28;20048;-84
2023/09/14 12:20:31;;;;;;;1999.90;999.90;;;;;;;;;;5083664;28;20060;-85
2023/09/14 12:22:57;;;;;;;1999.90;999.90;;;;;;;;;;5080746;28;20495;-85
2023/09/14 12:25:24;;;;;;;1999.90;999.90;;;;;;;;;;5084461;28;20043;-85
2023/09/14 12:27:50;;;;;;;1999.90;999.90;;;;;;;;;;5077879;28;20048;-86
2023/09/14 12:30:17;;;;;;;1999.90;999.90;;;;;;;;;;5076448;28;20055;-86
2023/09/14 12:32:45;;;;;;;1999.90;999.90;;;;;;;;;;5079026;28;20131;-85
2023/09/14 12:35:12;;;;;;;1999.90;999.90;;;;;;;;;;5078706;28;20046;-84
2023/09/14 12:37:39;;;;;;;1999.90;999.90;;;;;;;;;;5086616;28;20048;-86
2023/09/14 12:40:10;;;;;;;1999.90;999.90;;;;;;;;;;5076249;28;20063;-85
2023/09/14 12:42:37;;;;;;;1999.90;999.90;;;;;;;;;;5076749;28;20055;-86
2023/09/14 12:45:11;;;;;;;1999.90;999.90;;;;;;;;;;5078208;28;20040;-85
2023/09/14 12:47:37;;;;;;;1999.90;999.90;;;;;;;;;;5083125;28;20044;-87
2023/09/14 12:50:10;;;;;;;1999.90;999.90;;;;;;;;;;5082624;28;20530;-85
2023/09/14 12:52:38;;;;;;;1999.90;999.90;;;;;;;;;;5085983;28;20441;-85
2023/09/14 12:55:06;;;;;;;1999.90;999.90;;;;;;;;;;5081967;28;20048;-85
2023/09/14 12:57:34;;;;;;;1999.90;999.90;;;;;;;;;;5078155;28;20128;-86
2023/09/14 13:00:02;;;;;;;1999.90;999.90;;;;;;;;;;5078702;28;20055;-85
2023/09/14 13:02:33;;;;;;;1999.90;999.90;;;;;;;;;;5078992;28;20067;-86
2023/09/14 13:05:00;;;;;;;1999.90;999.90;;;;;;;;;;5084559;28;20138;-85
2023/09/14 13:07:27;;;;;;;1999.90;999.90;;;;;;;;;;5076890;28;20041;-86
2023/09/14 13:10:07;;;;;;;1999.90;999.90;;;;;;;;;;5080244;28;20044;-86
2023/09/14 13:12:34;;;;;;;1999.90;999.90;;;;;;;;;;5080378;28;20048;-85
2023/09/14 13:15:00;;;;;;;1999.90;999.90;;;;;;;;;;5080192;28;20084;-85
2023/09/14 13:17:27;;;;;;;1999.90;999.90;;;;;;;;;;5079545;28;20045;-86
2023/09/14 13:19:53;;;;;;;1999.90;999.90;;;;;;;;;;5077452;28;20048;-86
2023/09/14 13:22:20;;;;;;;1999.90;999.90;;;;;;;;;;5078548;28;20063;-85
2023/09/14 13:24:48;;;;;;;1999.90;999.90;;;;;;;;;;5078420;28;20420;-87
2023/09/14 13:27:14;;;;;;;1999.90;999.90;;;;;;;;;;5080151;28;20047;-88
2023/09/14 13:29:41;;;;;;;1999.90;999.90;;;;;;;;;;5078296;28;20044;-86
2023/09/14 13:32:08;;;;;;;1999.90;999.90;;;;;;;;;;5077995;28;20044;-86
2023/09/14 13:34:34;;;;;;;1999.90;999.90;;;;;;;;;;5078507;28;20056;-85
2023/09/14 13:37:01;;;;;;;1999.90;999.90;;;;;;;;;;5079217;28;20044;-89
2023/09/14 13:39:27;;;;;;;1999.90;999.90;;;;;;;;;;5079624;28;20265;-86
2023/09/14 13:41:55;;;;;;;1999.90;999.90;;;;;;;;;;5076594;28;20040;-86
2023/09/14 13:44:22;;;;;;;1999.90;999.90;;;;;;;;;;5081230;28;20408;-87